Terminal Aerodrome Forecast
Issued by NWS

Home | Current Version | Previous Version | Text Only | Print | Product List | Glossary On
Versions: 1 2 3 4 5 6 7 8 9 10 11 12 13 14 15 16 17 18 19 20 21 22 23 24 25 26 27 28 29 30 31 32 33 34 35 36
000
FTUS45 KGJT 221738
TAFTEX
TAF
KTEX 221738Z 2218/2318 14010G18KT P6SM VCSH SCT060 BKN080
      TEMPO 2218/2222 VRB10KT -SHRA BKN050 OVC070
     FM222200 17006KT P6SM -SHRA SCT050 BKN070
      TEMPO 2222/2302 VRB15G30KT 3SM TSRA SCT030 BKN040CB
     FM230300 15003KT P6SM VCSH SCT060 BKN090
     FM231200 14004KT P6SM VCSH SCT060 BKN090=

USA.gov is the U.S. government's official web portal to all federal, state and local government web resources and services.